Time;durP1;ratioP1;P1;durP2;ratioP2;P2;SDS_P1;SDS_P2;PMS_P1;PMS_P2;Temp;Humidity;BMP_temperature;BMP_pressure;BME280_temperature;BME280_humidity;BME280_pressure;Samples;Min_cycle;Max_cycle;Signal;HPM_P1;HPM_P2
2024/04/09 00:01:45;;;;;;;39.65;23.13;;;16.60;99.90;;;;;;5344728;26;20463;-74
2024/04/09 00:04:12;;;;;;;28.23;22.42;;;16.60;99.90;;;;;;5337715;26;19997;-74
2024/04/09 00:06:40;;;;;;;30.17;23.83;;;16.60;99.90;;;;;;5345327;26;20016;-74
2024/04/09 00:09:11;;;;;;;28.73;23.27;;;16.70;99.90;;;;;;5365931;26;20725;-74
2024/04/09 00:11:38;;;;;;;37.35;23.40;;;16.50;99.90;;;;;;5357232;26;20032;-74
2024/04/09 00:14:05;;;;;;;27.73;22.90;;;16.40;99.90;;;;;;5347977;26;20011;-75
2024/04/09 00:16:33;;;;;;;30.13;22.42;;;16.30;99.90;;;;;;5318353;26;20000;-74
2024/04/09 00:19:01;;;;;;;35.40;23.85;;;16.20;99.90;;;;;;5314775;26;20595;-74
2024/04/09 00:21:29;;;;;;;33.45;23.98;;;16.40;99.90;;;;;;5339142;26;21430;-75
2024/04/09 00:23:57;;;;;;;27.73;23.50;;;16.60;99.90;;;;;;5338994;26;20016;-74
2024/04/09 00:26:28;;;;;;;28.60;23.60;;;16.70;99.90;;;;;;5341361;26;21171;-74
2024/04/09 00:28:55;;;;;;;26.20;22.60;;;16.90;99.90;;;;;;5339021;26;20015;-74
2024/04/09 00:31:24;;;;;;;37.00;24.00;;;16.80;99.90;;;;;;5348907;26;20000;-75
2024/04/09 00:33:52;;;;;;;32.53;24.13;;;16.70;99.90;;;;;;5346352;26;20012;-74
2024/04/09 00:36:19;;;;;;;33.20;23.48;;;16.70;99.90;;;;;;5341361;26;20023;-75
2024/04/09 00:38:50;;;;;;;26.02;23.23;;;16.60;99.90;;;;;;5342918;26;20004;-74
2024/04/09 00:41:17;;;;;;;33.72;22.48;;;16.60;99.90;;;;;;5338232;26;20004;-73
2024/04/09 00:43:45;;;;;;;28.58;23.20;;;16.70;99.90;;;;;;5308910;26;20024;-74
2024/04/09 00:46:15;;;;;;;28.58;22.80;;;16.60;99.90;;;;;;5335041;26;20022;-75
2024/04/09 00:48:44;;;;;;;28.02;23.30;;;16.60;99.90;;;;;;5344328;26;20029;-74
2024/04/09 00:51:14;;;;;;;38.55;23.80;;;16.60;99.90;;;;;;5337999;26;20719;-74
2024/04/09 00:53:44;;;;;;;35.28;23.80;;;16.40;99.90;;;;;;5342646;26;20020;-73
2024/04/09 00:56:12;;;;;;;28.73;23.67;;;16.40;99.90;;;;;;5343628;26;20000;-74
2024/04/09 00:58:40;;;;;;;28.52;23.38;;;16.30;99.90;;;;;;5344286;26;20078;-74
2024/04/09 01:01:13;;;;;;;26.75;22.00;;;16.30;99.90;;;;;;5318296;26;20575;-74
2024/04/09 01:03:40;;;;;;;27.65;22.98;;;16.40;99.90;;;;;;5372123;26;20046;-74
2024/04/09 01:06:09;;;;;;;31.58;22.25;;;16.40;99.90;;;;;;5366055;26;20010;-73
2024/04/09 01:08:36;;;;;;;30.90;23.52;;;16.50;99.90;;;;;;5354325;26;20024;-75
2024/04/09 01:11:03;;;;;;;25.15;22.63;;;16.40;99.90;;;;;;5341693;26;20754;-74
2024/04/09 01:13:32;;;;;;;30.13;22.15;;;16.30;99.90;;;;;;5339751;26;20005;-75
2024/04/09 01:16:01;;;;;;;25.90;21.30;;;16.30;99.90;;;;;;5336676;26;20032;-74
2024/04/09 01:18:28;;;;;;;29.92;22.00;;;16.30;99.90;;;;;;5346852;26;20019;-75
2024/04/09 01:20:55;;;;;;;29.00;22.52;;;16.20;99.90;;;;;;5343837;26;20056;-74
2024/04/09 01:23:23;;;;;;;43.00;23.95;;;16.00;99.90;;;;;;5344020;26;20055;-73
2024/04/09 01:25:49;;;;;;;30.48;23.83;;;15.80;99.90;;;;;;5310419;26;20022;-75
2024/04/09 01:28:16;;;;;;;28.08;22.10;;;15.90;99.90;;;;;;5332409;26;20044;-74
2024/04/09 01:30:44;;;;;;;29.30;22.83;;;16.00;99.90;;;;;;5368259;26;20004;-75
2024/04/09 01:33:12;;;;;;;31.50;22.42;;;16.10;99.90;;;;;;5337001;26;20004;-74
2024/04/09 01:35:39;;;;;;;31.70;21.83;;;16.10;99.90;;;;;;5338575;26;20011;-74
2024/04/09 01:38:07;;;;;;;29.55;22.50;;;16.00;99.90;;;;;;5310218;26;22094;-74
2024/04/09 01:40:34;;;;;;;28.70;22.75;;;16.00;99.90;;;;;;5343074;26;20023;-74
2024/04/09 01:43:02;;;;;;;33.50;22.33;;;15.90;99.90;;;;;;5345907;26;20008;-74
2024/04/09 01:45:29;;;;;;;29.60;22.00;;;15.90;99.90;;;;;;5359875;26;20001;-74
2024/04/09 01:47:57;;;;;;;25.50;22.75;;;16.00;99.90;;;;;;5349372;26;20007;-75
2024/04/09 01:50:24;;;;;;;29.33;22.95;;;15.80;99.90;;;;;;5337470;26;20103;-74
2024/04/09 01:52:51;;;;;;;32.33;21.85;;;15.70;99.90;;;;;;5345427;26;20021;-74
2024/04/09 01:55:20;;;;;;;35.75;23.92;;;15.70;99.90;;;;;;5336151;26;20000;-75
2024/04/09 01:57:49;;;;;;;30.77;23.45;;;15.70;99.90;;;;;;5340174;26;20020;-74
2024/04/09 02:00:22;;;;;;;41.33;25.13;;;15.80;99.90;;;;;;5339312;26;20037;-74
2024/04/09 02:02:53;;;;;;;28.15;23.23;;;15.90;99.90;;;;;;5331749;26;20713;-74
2024/04/09 02:05:21;;;;;;;33.55;24.58;;;16.20;99.90;;;;;;5331675;26;20012;-75
2024/04/09 02:07:48;;;;;;;34.10;24.58;;;16.30;99.90;;;;;;5343297;26;20024;-75
2024/04/09 02:10:16;;;;;;;35.17;24.50;;;16.50;99.90;;;;;;5302943;26;20078;-74
2024/04/09 02:12:43;;;;;;;36.80;25.02;;;16.70;99.90;;;;;;5338636;26;20004;-75
2024/04/09 02:15:12;;;;;;;44.83;26.15;;;16.80;99.90;;;;;;5331837;26;20003;-74
2024/04/09 02:17:40;;;;;;;37.20;25.35;;;16.90;99.90;;;;;;5335476;26;20143;-75
2024/04/09 02:20:10;;;;;;;38.28;24.55;;;17.00;99.90;;;;;;5330031;26;20005;-74
2024/04/09 02:22:37;;;;;;;44.45;26.02;;;17.00;99.90;;;;;;5341331;26;20004;-75
2024/04/09 02:25:05;;;;;;;41.10;25.55;;;17.00;99.90;;;;;;5335628;26;20642;-75
2024/04/09 02:27:35;;;;;;;46.67;27.35;;;17.20;99.90;;;;;;5338604;26;20064;-74
2024/04/09 02:30:03;;;;;;;48.55;28.15;;;17.50;99.90;;;;;;5287811;26;20008;-75
2024/04/09 02:32:31;;;;;;;34.53;26.38;;;17.80;99.90;;;;;;5298243;26;20589;-75
2024/04/09 02:35:04;;;;;;;37.88;25.52;;;17.90;99.90;;;;;;5309417;26;20005;-76
2024/04/09 02:37:32;;;;;;;51.67;27.35;;;18.00;99.90;;;;;;5299462;26;20375;-74
2024/04/09 02:39:59;;;;;;;47.78;27.55;;;18.10;99.90;;;;;;5313974;26;20522;-74
2024/04/09 02:42:26;;;;;;;42.53;27.40;;;18.00;99.90;;;;;;5342202;26;20058;-74
2024/04/09 02:44:54;;;;;;;43.00;27.13;;;17.90;99.90;;;;;;5318717;26;20137;-73
2024/04/09 02:47:22;;;;;;;48.67;26.80;;;17.90;99.90;;;;;;5334714;26;19989;-74
2024/04/09 02:49:52;;;;;;;50.53;27.75;;;17.80;99.90;;;;;;5325160;26;20362;-74
2024/04/09 02:52:20;;;;;;;45.88;26.45;;;17.60;99.90;;;;;;5298433;26;20005;-77
2024/04/09 02:54:47;;;;;;;44.50;27.25;;;17.50;99.90;;;;;;5310011;26;19997;-74
2024/04/09 02:57:14;;;;;;;42.60;26.92;;;17.30;99.90;;;;;;5342933;26;20659;-75
2024/04/09 02:59:41;;;;;;;42.53;26.58;;;17.20;99.90;;;;;;5337913;26;20001;-75
2024/04/09 03:02:08;;;;;;;47.70;26.85;;;17.00;99.90;;;;;;5282278;26;20016;-75
2024/04/09 03:04:35;;;;;;;46.33;28.25;;;16.80;99.90;;;;;;5292991;26;20001;-74
2024/04/09 03:07:04;;;;;;;47.65;26.30;;;16.90;99.90;;;;;;5295962;26;19997;-72
2024/04/09 03:09:31;;;;;;;49.22;27.13;;;17.20;99.90;;;;;;5312918;26;20920;-73
2024/04/09 03:11:59;;;;;;;42.38;26.88;;;17.60;99.90;;;;;;5308472;26;20008;-73
2024/04/09 03:14:29;;;;;;;47.22;26.48;;;17.80;99.90;;;;;;5312494;26;20109;-75
2024/04/09 03:16:57;;;;;;;50.05;26.70;;;17.90;99.90;;;;;;5326837;26;20067;-75
2024/04/09 03:19:24;;;;;;;42.65;27.00;;;17.90;99.90;;;;;;5336916;26;19997;-75
2024/04/09 03:21:51;;;;;;;42.20;26.13;;;18.10;99.90;;;;;;5334840;26;20020;-74
2024/04/09 03:24:20;;;;;;;38.70;27.25;;;18.10;99.90;;;;;;5304993;26;20001;-74
2024/04/09 03:26:50;;;;;;;39.25;25.50;;;18.10;99.90;;;;;;5312235;26;20445;-74
2024/04/09 03:29:19;;;;;;;49.35;25.92;;;18.00;99.90;;;;;;5303775;26;20019;-75
2024/04/09 03:31:50;;;;;;;39.28;24.95;;;18.00;99.90;;;;;;5351723;26;20007;-74
2024/04/09 03:34:17;;;;;;;44.53;26.15;;;17.90;99.90;;;;;;5346523;26;20001;-74
2024/04/09 03:36:44;;;;;;;42.22;25.10;;;17.80;99.90;;;;;;5311957;26;20008;-74
2024/04/09 03:39:12;;;;;;;51.70;25.55;;;17.80;99.90;;;;;;5333619;26;20004;-74
2024/04/09 03:41:39;;;;;;;44.45;24.92;;;17.70;99.90;;;;;;5350164;26;20015;-76
2024/04/09 03:44:07;;;;;;;52.80;27.10;;;17.70;99.90;;;;;;5349897;26;20009;-74
2024/04/09 03:46:34;;;;;;;48.50;27.55;;;17.70;99.90;;;;;;5342186;26;20299;-74
2024/04/09 03:49:03;;;;;;;49.08;25.83;;;17.70;99.90;;;;;;5319145;26;20042;-75
2024/04/09 03:51:31;;;;;;;37.58;26.08;;;17.70;99.90;;;;;;5345376;26;20011;-76
2024/04/09 03:53:58;;;;;;;39.78;25.15;;;17.60;99.90;;;;;;5335049;26;20001;-75
2024/04/09 03:56:28;;;;;;;40.20;26.20;;;17.60;99.90;;;;;;5363338;26;20001;-75
2024/04/09 03:58:56;;;;;;;46.47;25.88;;;17.50;99.90;;;;;;5348243;26;20004;-73
2024/04/09 04:01:24;;;;;;;40.33;25.85;;;17.30;99.90;;;;;;5343845;26;20063;-74
2024/04/09 04:03:53;;;;;;;46.20;25.98;;;17.20;99.90;;;;;;5350850;26;20023;-76
2024/04/09 04:06:21;;;;;;;51.30;26.55;;;16.80;99.90;;;;;;5342839;26;20037;-76
2024/04/09 04:08:48;;;;;;;42.42;25.95;;;17.00;99.90;;;;;;5341957;26;20082;-75
2024/04/09 04:11:15;;;;;;;46.95;26.88;;;17.30;99.90;;;;;;5350090;26;20015;-76
2024/04/09 04:13:42;;;;;;;38.05;24.70;;;17.30;99.90;;;;;;5345070;26;20565;-75
2024/04/09 04:16:14;;;;;;;37.97;25.15;;;17.20;99.90;;;;;;5334887;26;20030;-76
2024/04/09 04:18:46;;;;;;;48.15;24.83;;;17.10;99.90;;;;;;5342723;26;20583;-76
2024/04/09 04:21:16;;;;;;;35.50;25.67;;;17.00;99.90;;;;;;5338180;26;20012;-75
2024/04/09 04:23:46;;;;;;;38.88;24.15;;;16.90;99.90;;;;;;5339789;26;20451;-75
2024/04/09 04:26:14;;;;;;;30.17;23.50;;;16.70;99.90;;;;;;5338097;26;20688;-76
2024/04/09 04:28:43;;;;;;;29.90;23.63;;;16.60;99.90;;;;;;5324733;26;20008;-75
2024/04/09 04:31:15;;;;;;;29.42;23.27;;;16.60;99.90;;;;;;5346172;26;20023;-76
2024/04/09 04:33:44;;;;;;;32.78;23.75;;;16.50;99.90;;;;;;5344336;26;20075;-76
2024/04/09 04:36:15;;;;;;;32.03;23.23;;;16.40;99.90;;;;;;5362028;26;20008;-75
2024/04/09 04:38:44;;;;;;;36.88;23.08;;;16.30;99.90;;;;;;5346451;26;20004;-75
2024/04/09 04:41:11;;;;;;;41.10;23.35;;;16.30;99.90;;;;;;5341188;26;20016;-75
2024/04/09 04:43:39;;;;;;;38.72;29.30;;;16.20;99.90;;;;;;5334912;26;20001;-75
2024/04/09 04:46:07;;;;;;;38.35;22.90;;;16.10;99.90;;;;;;5325755;26;20048;-75
2024/04/09 04:48:35;;;;;;;34.90;22.88;;;16.10;99.90;;;;;;5275402;26;20049;-76
2024/04/09 04:51:03;;;;;;;35.05;23.20;;;16.10;99.90;;;;;;5268657;26;20691;-75
2024/04/09 04:53:31;;;;;;;33.88;23.50;;;16.00;99.90;;;;;;5329462;26;20021;-74
2024/04/09 04:55:58;;;;;;;40.40;24.17;;;15.90;99.90;;;;;;5325593;26;19990;-75
2024/04/09 04:58:27;;;;;;;39.30;23.60;;;15.90;99.90;;;;;;5319703;26;20540;-75
2024/04/09 05:00:54;;;;;;;36.47;23.45;;;15.90;99.90;;;;;;5309632;26;20004;-76
2024/04/09 05:03:22;;;;;;;34.53;23.30;;;15.90;99.90;;;;;;5278744;26;20365;-74
2024/04/09 05:05:50;;;;;;;36.95;23.45;;;15.90;99.90;;;;;;5332898;26;20000;-75
2024/04/09 05:08:19;;;;;;;42.05;23.48;;;15.80;99.90;;;;;;5304690;26;20001;-75
2024/04/09 05:10:46;;;;;;;26.00;22.00;;;15.80;99.90;;;;;;5323498;26;20573;-75
2024/04/09 05:13:13;;;;;;;27.08;22.10;;;15.70;99.90;;;;;;5336032;26;20024;-76
2024/04/09 05:15:40;;;;;;;36.03;32.40;;;15.70;99.90;;;;;;5341572;26;20051;-75
2024/04/09 05:18:08;;;;;;;37.72;32.33;;;15.70;99.90;;;;;;5339112;26;20000;-74
2024/04/09 05:20:39;;;;;;;34.45;30.85;;;15.60;99.90;;;;;;5339345;26;19997;-73
2024/04/09 05:23:07;;;;;;;33.45;30.42;;;15.70;99.90;;;;;;5325035;26;19997;-75
2024/04/09 05:25:34;;;;;;;36.70;30.50;;;15.70;99.90;;;;;;5300702;26;20995;-74
2024/04/09 05:28:02;;;;;;;35.72;31.55;;;15.60;99.90;;;;;;5299058;26;20080;-74
2024/04/09 05:30:29;;;;;;;40.55;32.05;;;15.60;99.90;;;;;;5278839;26;20005;-74
2024/04/09 05:32:57;;;;;;;39.67;30.98;;;15.60;99.90;;;;;;5319360;26;20004;-76
2024/04/09 05:35:25;;;;;;;33.75;30.27;;;15.60;99.90;;;;;;5313711;26;20706;-75
2024/04/09 05:37:53;;;;;;;33.65;28.85;;;15.60;99.90;;;;;;5309600;26;20052;-75
2024/04/09 05:40:20;;;;;;;38.00;30.30;;;15.70;99.90;;;;;;5315169;26;20001;-75
2024/04/09 05:42:48;;;;;;;33.42;29.35;;;15.60;99.90;;;;;;5296872;26;20192;-74
2024/04/09 05:45:21;;;;;;;33.50;29.90;;;15.60;99.90;;;;;;5327538;26;20013;-76
2024/04/09 05:47:48;;;;;;;40.20;29.75;;;15.70;99.90;;;;;;5341087;26;20348;-72
2024/04/09 05:50:16;;;;;;;37.13;28.73;;;15.80;99.90;;;;;;5341261;26;20052;-74
2024/04/09 05:52:45;;;;;;;38.88;29.52;;;15.80;99.90;;;;;;5322760;26;20013;-74
2024/04/09 05:55:12;;;;;;;33.88;30.52;;;15.80;99.90;;;;;;5306452;26;20011;-75
2024/04/09 05:57:40;;;;;;;41.50;31.33;;;15.80;99.90;;;;;;5338846;26;20828;-75
2024/04/09 06:00:15;;;;;;;40.05;29.75;;;15.90;99.90;;;;;;5304774;26;20011;-74
2024/04/09 06:02:47;;;;;;;34.53;30.88;;;15.90;99.90;;;;;;5340023;26;20458;-74
2024/04/09 06:05:16;;;;;;;34.05;30.50;;;16.00;99.90;;;;;;5341400;26;20019;-74
2024/04/09 06:07:44;;;;;;;36.83;31.13;;;16.00;99.90;;;;;;5315954;26;20005;-75
2024/04/09 06:10:14;;;;;;;41.22;30.10;;;15.80;99.90;;;;;;5327850;26;20814;-73
2024/04/09 06:12:42;;;;;;;32.42;29.17;;;15.70;99.90;;;;;;5306569;26;20011;-75
2024/04/09 06:15:09;;;;;;;35.75;30.30;;;15.80;99.90;;;;;;5337853;26;20001;-75
2024/04/09 06:17:36;;;;;;;36.22;30.13;;;15.80;99.90;;;;;;5306811;26;20008;-76
2024/04/09 06:20:04;;;;;;;33.40;29.55;;;15.80;99.90;;;;;;5314667;26;20015;-75
2024/04/09 06:22:32;;;;;;;34.28;30.77;;;15.90;99.90;;;;;;5338003;26;20465;-74
2024/04/09 06:25:00;;;;;;;35.75;30.58;;;16.00;99.90;;;;;;5343145;26;20004;-75
2024/04/09 06:27:28;;;;;;;35.22;29.52;;;16.10;99.90;;;;;;5327743;26;20008;-76
2024/04/09 06:29:55;;;;;;;33.13;29.42;;;16.10;99.90;;;;;;5338623;26;20086;-75
2024/04/09 06:32:23;;;;;;;33.50;29.08;;;16.10;99.90;;;;;;5302052;26;20673;-75
2024/04/09 06:34:50;;;;;;;33.28;29.88;;;16.10;99.90;;;;;;5336665;26;20000;-75
2024/04/09 06:37:17;;;;;;;32.88;28.98;;;16.10;99.90;;;;;;5313661;26;20012;-74
2024/04/09 06:39:45;;;;;;;39.65;29.75;;;16.10;99.90;;;;;;5335855;26;20099;-76
2024/04/09 06:42:13;;;;;;;36.25;31.65;;;16.10;99.90;;;;;;5337421;26;21011;-75
2024/04/09 06:44:40;;;;;;;33.50;30.30;;;16.10;99.90;;;;;;5331235;26;20004;-75
2024/04/09 06:47:07;;;;;;;32.80;29.73;;;16.00;99.90;;;;;;5313108;26;20001;-76
2024/04/09 06:49:34;;;;;;;40.10;29.75;;;16.00;99.90;;;;;;5314517;26;20073;-74
2024/04/09 06:52:02;;;;;;;35.10;31.25;;;16.00;99.90;;;;;;5311593;26;20128;-75
2024/04/09 06:54:31;;;;;;;40.53;31.35;;;15.90;99.90;;;;;;5309736;26;20621;-75
2024/04/09 06:56:58;;;;;;;35.22;31.95;;;16.00;99.90;;;;;;5311052;26;20495;-75
2024/04/09 06:59:26;;;;;;;42.78;35.25;;;16.00;99.90;;;;;;5275695;26;21383;-75
2024/04/09 07:01:54;;;;;;;35.90;32.88;;;16.10;99.90;;;;;;5312560;26;20017;-75
2024/04/09 07:04:21;;;;;;;37.72;34.33;;;16.20;99.90;;;;;;5299273;26;20016;-76
2024/04/09 07:06:50;;;;;;;33.65;30.33;;;16.20;99.90;;;;;;5315172;26;21243;-76
2024/04/09 07:09:18;;;;;;;31.95;28.70;;;16.10;99.90;;;;;;5324355;26;19997;-75
2024/04/09 07:11:46;;;;;;;32.95;28.80;;;16.10;99.90;;;;;;5280043;26;20005;-78
2024/04/09 07:14:14;;;;;;;33.05;29.73;;;16.10;99.90;;;;;;5315852;26;20068;-75
2024/04/09 07:16:46;;;;;;;31.52;28.23;;;16.20;99.90;;;;;;5309386;26;20000;-75
2024/04/09 07:19:14;;;;;;;31.10;27.88;;;16.20;99.90;;;;;;5318180;26;20016;-74
2024/04/09 07:21:41;;;;;;;30.98;28.33;;;16.20;99.90;;;;;;5333455;26;20019;-75
2024/04/09 07:24:11;;;;;;;31.77;29.42;;;16.20;99.90;;;;;;5344416;26;20001;-74
2024/04/09 07:26:38;;;;;;;32.17;29.75;;;16.10;99.90;;;;;;5317577;26;20435;-75
2024/04/09 07:29:05;;;;;;;31.75;28.85;;;16.20;99.90;;;;;;5311013;26;20021;-76
2024/04/09 07:31:34;;;;;;;32.13;28.85;;;16.20;99.90;;;;;;5330969;26;20004;-74
2024/04/09 07:34:01;;;;;;;34.47;29.17;;;16.30;99.90;;;;;;5341831;26;20472;-74
2024/04/09 07:36:28;;;;;;;28.70;25.83;;;16.20;99.90;;;;;;5336287;26;20064;-76
2024/04/09 07:38:56;;;;;;;32.58;29.40;;;16.30;99.90;;;;;;5272992;26;20033;-76
2024/04/09 07:41:25;;;;;;;30.40;27.90;;;16.50;99.90;;;;;;5298730;26;20435;-75
2024/04/09 07:43:53;;;;;;;31.23;28.15;;;16.40;99.90;;;;;;5305292;26;20024;-74
2024/04/09 07:46:19;;;;;;;30.30;27.95;;;16.30;99.90;;;;;;5353808;26;20073;-75
2024/04/09 07:48:47;;;;;;;29.42;27.23;;;16.20;99.90;;;;;;5320542;26;20036;-75
2024/04/09 07:51:15;;;;;;;30.23;27.15;;;16.10;99.90;;;;;;5307484;26;20025;-77
2024/04/09 07:53:42;;;;;;;28.95;25.75;;;16.00;99.90;;;;;;5323268;26;20007;-74
2024/04/09 07:56:12;;;;;;;28.55;26.55;;;16.00;99.90;;;;;;5334787;26;20015;-76
2024/04/09 07:58:40;;;;;;;32.13;28.88;;;16.00;99.90;;;;;;5311298;26;20008;-75
2024/04/09 08:01:07;;;;;;;32.25;29.33;;;16.00;99.90;;;;;;5323094;26;20000;-73
2024/04/09 08:03:34;;;;;;;31.17;28.60;;;16.00;99.90;;;;;;5279135;26;20399;-75
2024/04/09 08:06:04;;;;;;;30.23;28.23;;;16.10;99.90;;;;;;5316992;26;20228;-75
2024/04/09 08:08:32;;;;;;;30.52;28.52;;;16.10;99.90;;;;;;5307407;26;20001;-75
2024/04/09 08:11:08;;;;;;;33.75;31.40;;;15.90;99.90;;;;;;5321598;26;20027;-75
2024/04/09 08:13:36;;;;;;;29.42;27.77;;;15.70;99.90;;;;;;5347508;26;20012;-77
2024/04/09 08:16:04;;;;;;;29.25;27.40;;;15.60;99.90;;;;;;5340851;26;20781;-77
2024/04/09 08:18:31;;;;;;;29.10;27.17;;;15.50;99.90;;;;;;5349907;26;19996;-75
2024/04/09 08:21:00;;;;;;;32.88;31.13;;;15.50;99.90;;;;;;5342946;26;20005;-76
2024/04/09 08:23:31;;;;;;;34.72;33.03;;;15.40;99.90;;;;;;5343628;26;20013;-75
2024/04/09 08:25:59;;;;;;;28.88;27.10;;;15.30;99.90;;;;;;5363100;26;20042;-77
2024/04/09 08:28:27;;;;;;;26.08;24.10;;;15.30;99.90;;;;;;5366888;26;20009;-76
2024/04/09 08:31:05;;;;;;;26.63;24.85;;;15.20;99.90;;;;;;5388740;26;20008;-78
2024/04/09 08:33:34;;;;;;;27.38;25.65;;;15.10;99.90;;;;;;5324002;26;20009;-78
2024/04/09 08:36:02;;;;;;;33.42;31.80;;;15.00;99.90;;;;;;5342422;26;20225;-75
2024/04/09 08:38:33;;;;;;;28.55;26.65;;;14.90;99.90;;;;;;5327474;26;20082;-75
2024/04/09 08:41:08;;;;;;;29.85;28.05;;;15.00;99.90;;;;;;5352135;26;20008;-76
2024/04/09 08:43:40;;;;;;;32.03;29.73;;;15.20;99.90;;;;;;5309872;26;20004;-74
2024/04/09 08:46:10;;;;;;;43.70;40.85;;;15.40;99.90;;;;;;5361089;26;20035;-74
2024/04/09 08:48:47;;;;;;;30.08;28.33;;;15.50;99.90;;;;;;5340794;26;20062;-74
2024/04/09 08:51:16;;;;;;;35.10;32.75;;;15.70;99.90;;;;;;5327809;26;20000;-73
2024/04/09 08:53:45;;;;;;;34.95;33.20;;;15.80;99.90;;;;;;5331807;26;20054;-74
2024/04/09 08:56:12;;;;;;;31.00;29.20;;;16.00;99.90;;;;;;5349628;26;20059;-75
2024/04/09 08:58:40;;;;;;;28.98;27.17;;;16.00;99.90;;;;;;5338843;26;20005;-75
2024/04/09 09:01:12;;;;;;;29.67;27.67;;;16.00;99.90;;;;;;5323228;26;21226;-76
2024/04/09 09:03:39;;;;;;;28.23;26.52;;;16.00;99.90;;;;;;5333765;26;20465;-75
2024/04/09 09:06:07;;;;;;;31.52;29.83;;;16.00;99.90;;;;;;5338283;26;20019;-76
2024/04/09 09:08:41;;;;;;;29.33;27.40;;;16.20;99.90;;;;;;5333839;26;20004;-75
2024/04/09 09:11:19;;;;;;;30.07;28.33;;;16.30;99.90;;;;;;5326748;26;20001;-76
2024/04/09 09:13:47;;;;;;;31.98;29.73;;;16.20;99.90;;;;;;5332459;26;20231;-76
2024/04/09 09:16:14;;;;;;;28.42;26.65;;;16.10;99.90;;;;;;5340901;26;20016;-75
2024/04/09 09:18:41;;;;;;;34.70;32.75;;;16.00;99.90;;;;;;5330173;26;20004;-75
2024/04/09 09:21:09;;;;;;;40.55;38.45;;;16.10;99.90;;;;;;5342604;26;20037;-75
2024/04/09 09:23:37;;;;;;;44.17;42.05;;;16.20;99.90;;;;;;5333126;26;20031;-76
2024/04/09 09:26:06;;;;;;;37.60;35.60;;;16.20;99.90;;;;;;5337701;26;20059;-75
2024/04/09 09:28:33;;;;;;;31.92;30.02;;;15.90;99.90;;;;;;5322361;26;20004;-75
2024/04/09 09:31:00;;;;;;;31.35;29.25;;;15.80;99.90;;;;;;5341630;26;20030;-74
2024/04/09 09:33:31;;;;;;;30.92;29.02;;;15.80;99.90;;;;;;5339939;26;20008;-74
2024/04/09 09:36:01;;;;;;;31.38;29.58;;;15.80;99.90;;;;;;5307109;26;20005;-75
2024/04/09 09:38:30;;;;;;;32.35;30.42;;;15.70;99.90;;;;;;5336887;26;20024;-75
2024/04/09 09:41:00;;;;;;;26.40;24.90;;;15.90;99.90;;;;;;5367006;26;20008;-76
2024/04/09 09:43:27;;;;;;;26.85;25.30;;;15.80;99.90;;;;;;5342824;26;20075;-75
2024/04/09 09:45:56;;;;;;;24.02;22.52;;;15.40;99.90;;;;;;5333212;26;20012;-77
2024/04/09 09:48:24;;;;;;;24.63;23.23;;;14.90;99.90;;;;;;5340348;26;20013;-76
2024/04/09 09:50:52;;;;;;;21.13;19.90;;;14.40;99.90;;;;;;5342007;26;20023;-76
2024/04/09 09:53:19;;;;;;;20.60;19.60;;;14.00;99.90;;;;;;5339402;26;20691;-77
2024/04/09 09:55:52;;;;;;;19.27;18.38;;;13.80;99.90;;;;;;5346773;26;19996;-76
2024/04/09 09:58:26;;;;;;;19.83;18.73;;;13.70;99.90;;;;;;5329862;26;20008;-74
2024/04/09 10:00:54;;;;;;;20.35;19.35;;;13.50;99.90;;;;;;5363303;26;20011;-76
2024/04/09 10:03:25;;;;;;;20.85;19.67;;;13.40;99.90;;;;;;5339351;26;20014;-75
2024/04/09 10:05:53;;;;;;;19.27;18.27;;;13.30;99.90;;;;;;5340177;26;20017;-75
2024/04/09 10:08:27;;;;;;;19.15;18.15;;;13.30;99.90;;;;;;5337165;26;20020;-76
2024/04/09 10:10:55;;;;;;;20.05;18.95;;;13.40;99.90;;;;;;5315076;26;20012;-76
2024/04/09 10:13:27;;;;;;;21.05;19.67;;;13.40;99.90;;;;;;5339138;26;20008;-75
2024/04/09 10:16:23;;;;;;;18.45;17.42;;;13.30;99.90;;;;;;5343895;26;20008;-74
2024/04/09 10:18:57;;;;;;;17.50;16.25;;;13.10;99.90;;;;;;5333569;26;20009;-74
2024/04/09 10:21:28;;;;;;;15.60;14.70;;;13.00;99.90;;;;;;5339504;26;20078;-75
2024/04/09 10:23:59;;;;;;;14.48;13.48;;;12.80;99.90;;;;;;5315949;26;20049;-75
2024/04/09 10:26:27;;;;;;;12.27;11.45;;;12.90;99.90;;;;;;5340479;26;20018;-75
2024/04/09 10:29:02;;;;;;;12.85;11.82;;;12.90;99.90;;;;;;5302771;26;20001;-75
2024/04/09 10:31:43;;;;;;;12.35;11.18;;;12.90;99.90;;;;;;5339163;26;20074;-75
2024/04/09 10:34:21;;;;;;;12.40;11.32;;;12.80;99.90;;;;;;5354485;26;20000;-77
2024/04/09 10:36:49;;;;;;;12.18;11.05;;;12.70;99.90;;;;;;5351696;26;20004;-77
2024/04/09 10:39:20;;;;;;;12.20;11.13;;;12.60;99.90;;;;;;5316381;26;20263;-75
2024/04/09 10:41:57;;;;;;;11.45;10.52;;;12.40;99.90;;;;;;5311523;26;20008;-76
2024/04/09 10:44:24;;;;;;;10.32;9.43;;;12.40;99.90;;;;;;5343093;26;20081;-79
2024/04/09 10:46:52;;;;;;;15.52;11.48;;;12.30;99.90;;;;;;5346673;26;20082;-80
2024/04/09 10:49:22;;;;;;;11.00;9.93;;;12.20;99.90;;;;;;5341705;26;20225;-82
2024/04/09 10:51:50;;;;;;;10.10;9.10;;;12.20;99.90;;;;;;5347149;26;20016;-79
2024/04/09 10:54:20;;;;;;;12.23;11.38;;;12.10;99.90;;;;;;5349054;26;20004;-80
2024/04/09 10:56:58;;;;;;;17.20;15.02;;;11.90;99.90;;;;;;5322367;26;20004;-81
2024/04/09 10:59:25;;;;;;;15.18;14.27;;;11.90;99.90;;;;;;5348234;26;20594;-80
2024/04/09 11:01:52;;;;;;;25.73;24.52;;;11.90;99.90;;;;;;5347567;26;20005;-79
2024/04/09 11:04:19;;;;;;;28.48;26.90;;;11.70;99.90;;;;;;5371795;26;20011;-76
2024/04/09 11:06:49;;;;;;;30.13;28.73;;;11.70;99.90;;;;;;5342706;26;20015;-79
2024/04/09 11:09:20;;;;;;;31.15;29.75;;;11.60;99.90;;;;;;5311156;26;20001;-79
2024/04/09 11:11:49;;;;;;;29.83;28.38;;;11.60;99.90;;;;;;5305458;26;20664;-80
2024/04/09 11:14:17;;;;;;;31.13;29.52;;;11.60;99.90;;;;;;5339235;26;20009;-78
2024/04/09 11:16:48;;;;;;;34.13;32.55;;;11.60;99.90;;;;;;5316337;26;20670;-76
2024/04/09 11:19:23;;;;;;;35.35;33.65;;;11.40;99.90;;;;;;5281035;26;20001;-77
2024/04/09 11:21:51;;;;;;;33.15;31.45;;;11.30;99.90;;;;;;5328341;26;20000;-78
2024/04/09 11:24:23;;;;;;;32.42;30.73;;;11.00;99.90;;;;;;5343313;26;20019;-77
2024/04/09 11:26:50;;;;;;;32.25;30.75;;;10.90;99.90;;;;;;5314326;26;20012;-77
2024/04/09 11:29:19;;;;;;;31.48;29.88;;;10.80;99.90;;;;;;5341184;26;20637;-78
2024/04/09 11:31:49;;;;;;;29.98;28.38;;;10.70;99.90;;;;;;5342530;26;20039;-76
2024/04/09 11:34:24;;;;;;;31.60;30.20;;;10.70;99.90;;;;;;5348110;26;20000;-75
2024/04/09 11:36:53;;;;;;;32.40;30.80;;;10.70;99.90;;;;;;5313604;26;20020;-75
2024/04/09 11:39:22;;;;;;;38.67;36.55;;;10.60;99.90;;;;;;5344214;26;20019;-75
2024/04/09 11:41:50;;;;;;;38.42;36.47;;;10.60;99.90;;;;;;5347680;26;20011;-76
2024/04/09 11:44:21;;;;;;;40.22;38.33;;;10.50;99.90;;;;;;5312204;26;20005;-77
2024/04/09 11:46:49;;;;;;;45.47;43.45;;;10.40;99.90;;;;;;5339689;26;20013;-77
2024/04/09 11:49:18;;;;;;;33.40;31.83;;;10.30;99.90;;;;;;5348763;26;20015;-77
2024/04/09 11:51:47;;;;;;;35.30;33.47;;;10.30;99.90;;;;;;5368772;26;20004;-76
2024/04/09 11:54:14;;;;;;;32.47;30.88;;;10.30;99.90;;;;;;5340863;26;20603;-79
2024/04/09 11:56:45;;;;;;;29.40;28.08;;;10.20;99.90;;;;;;5340175;26;20056;-82
2024/04/09 11:59:13;;;;;;;30.95;29.52;;;10.10;99.90;;;;;;5351254;26;20418;-79
2024/04/09 12:01:40;;;;;;;29.50;28.20;;;10.00;99.90;;;;;;5336894;26;20013;-79
2024/04/09 12:04:08;;;;;;;32.67;30.98;;;10.00;99.90;;;;;;5314528;26;19996;-79
2024/04/09 12:06:35;;;;;;;29.58;28.27;;;9.90;99.90;;;;;;5335635;26;20019;-79
2024/04/09 12:09:06;;;;;;;29.23;27.50;;;9.80;99.90;;;;;;5348160;26;20016;-79
2024/04/09 12:11:35;;;;;;;24.00;22.80;;;9.60;99.90;;;;;;5341791;26;20028;-77
2024/04/09 12:14:02;;;;;;;23.35;22.05;;;9.70;99.90;;;;;;5345019;26;20003;-78
2024/04/09 12:16:30;;;;;;;21.30;20.13;;;9.60;99.90;;;;;;5336076;26;20015;-78
2024/04/09 12:18:57;;;;;;;19.70;18.60;;;9.60;99.90;;;;;;5344824;26;20011;-79
2024/04/09 12:21:25;;;;;;;18.30;17.30;;;9.50;99.90;;;;;;5307757;26;20012;-78
2024/04/09 12:23:53;;;;;;;15.48;14.68;;;9.50;99.90;;;;;;5347927;26;20008;-78
2024/04/09 12:26:20;;;;;;;16.08;15.18;;;9.60;99.90;;;;;;5346255;26;20024;-78
2024/04/09 12:28:47;;;;;;;16.42;15.30;;;9.50;99.90;;;;;;5350003;26;20058;-78
2024/04/09 12:31:14;;;;;;;18.00;16.88;;;9.50;99.90;;;;;;5328533;26;19992;-77
2024/04/09 12:33:41;;;;;;;18.58;17.48;;;9.50;99.90;;;;;;5357793;26;20059;-77
2024/04/09 12:36:10;;;;;;;20.42;19.30;;;9.40;99.90;;;;;;5366495;26;21571;-77